Time;durP1;ratioP1;P1;durP2;ratioP2;P2;SDS_P1;SDS_P2;PMS_P1;PMS_P2;Temp;Humidity;BMP_temperature;BMP_pressure;BME280_temperature;BME280_humidity;BME280_pressure;Samples;Min_cycle;Max_cycle;Signal;HPM_P1;HPM_P2
2022/04/04 00:01:51;;;;;;;1.23;1.23;;;0.70;76.40;-0.40;98625.00;;;;5016830;28;20232;-76
2022/04/04 00:04:18;;;;;;;3.20;2.93;;;0.60;75.80;-0.40;98611.00;;;;5016929;28;20240;-75
2022/04/04 00:06:44;;;;;;;3.93;2.33;;;0.60;75.90;-0.40;98616.00;;;;5034123;28;20208;-75
2022/04/04 00:09:11;;;;;;;1.33;1.30;;;0.50;76.40;-0.40;98606.00;;;;5034262;28;20266;-75
2022/04/04 00:11:38;;;;;;;1.20;1.20;;;0.50;76.80;-0.30;98615.00;;;;5016525;28;20636;-74
2022/04/04 00:14:05;;;;;;;2.00;1.90;;;0.50;77.00;-0.40;98614.00;;;;5016485;28;20259;-75
2022/04/04 00:16:32;;;;;;;1.00;1.00;;;0.50;77.20;-0.50;98610.00;;;;5016623;28;20218;-76
2022/04/04 00:19:00;;;;;;;1.47;1.43;;;0.50;76.00;-0.50;98594.00;;;;5016571;28;20556;-75
2022/04/04 00:21:26;;;;;;;1.47;1.37;;;0.50;75.80;-0.70;98618.00;;;;5034108;28;20239;-74
2022/04/04 00:23:53;;;;;;;2.43;2.23;;;0.40;75.10;-0.60;98563.00;;;;5016677;28;20244;-75
2022/04/04 00:26:20;;;;;;;4.20;1.90;;;0.30;75.20;-0.70;98613.00;;;;5016467;28;20209;-76
2022/04/04 00:28:49;;;;;;;1.40;1.30;;;0.40;74.80;-0.60;98604.00;;;;5016381;28;20258;-76
2022/04/04 00:31:17;;;;;;;1.10;1.10;;;0.40;74.70;-0.70;98614.00;;;;5016402;28;20204;-74
2022/04/04 00:33:44;;;;;;;1.30;1.30;;;0.40;74.60;-0.70;98616.00;;;;5033666;28;20203;-75
2022/04/04 00:36:11;;;;;;;1.10;1.10;;;0.30;75.40;-0.50;98624.00;;;;5033593;28;20245;-75
2022/04/04 00:38:37;;;;;;;1.00;1.00;;;0.40;76.00;-0.40;98619.00;;;;5016456;28;20211;-75
2022/04/04 00:41:08;;;;;;;2.07;1.93;;;0.40;76.20;-0.60;98606.00;;;;5016166;28;20267;-75
2022/04/04 00:43:35;;;;;;;1.53;1.47;;;0.50;75.80;-0.50;98611.00;;;;5016229;28;20203;-75
2022/04/04 00:46:02;;;;;;;1.97;1.87;;;0.50;75.30;-0.60;98609.00;;;;5016298;28;20552;-75
2022/04/04 00:48:29;;;;;;;1.70;1.60;;;0.40;75.40;-0.50;98578.00;;;;5033572;28;20298;-74
2022/04/04 00:51:00;;;;;;;1.83;1.70;;;0.40;75.80;-0.60;98613.00;;;;5016004;28;20215;-74
2022/04/04 00:53:30;;;;;;;0.83;0.83;;;0.40;74.90;-0.50;98616.00;;;;5016044;28;20315;-75
2022/04/04 00:55:58;;;;;;;1.07;1.07;;;0.40;75.60;-0.50;98571.00;;;;5015890;28;20271;-75
2022/04/04 00:58:28;;;;;;;1.57;1.50;;;0.40;75.70;-0.70;98599.00;;;;5015792;28;20270;-75
2022/04/04 01:00:58;;;;;;;0.90;0.90;;;0.30;75.10;-0.80;98558.00;;;;5016105;28;20724;-75
2022/04/04 01:03:25;;;;;;;1.20;1.17;;;0.30;75.60;-0.70;98622.00;;;;5016043;28;20218;-76
2022/04/04 01:05:52;;;;;;;1.33;1.00;;;0.30;75.70;-0.70;98579.00;;;;5033658;28;20212;-75
2022/04/04 01:08:19;;;;;;;1.47;1.37;;;0.20;75.80;-0.70;98596.00;;;;5016392;28;20212;-75
2022/04/04 01:10:46;;;;;;;1.97;1.37;;;0.30;76.00;-0.80;98610.00;;;;5035371;28;20567;-78
2022/04/04 01:13:13;;;;;;;1.43;1.40;;;0.20;75.50;-1.00;98594.00;;;;5024410;28;20536;-75
2022/04/04 01:15:40;;;;;;;1.73;1.63;;;0.10;75.30;-1.10;98601.00;;;;5022798;28;20231;-75
2022/04/04 01:18:09;;;;;;;1.67;1.57;;;0.00;75.00;-1.20;98590.00;;;;5020463;28;20222;-76
2022/04/04 01:20:38;;;;;;;1.83;1.73;;;-0.20;75.90;-1.20;98600.00;;;;5020214;28;20238;-75
2022/04/04 01:23:05;;;;;;;2.33;2.13;;;-0.20;76.50;-1.20;98598.00;;;;5037276;28;20230;-75
2022/04/04 01:25:35;;;;;;;2.23;1.03;;;-0.20;76.50;-1.20;98589.00;;;;5037160;28;20265;-75
2022/04/04 01:28:04;;;;;;;1.00;1.00;;;-0.20;77.50;-1.20;98592.00;;;;5038519;28;20583;-75
2022/04/04 01:30:32;;;;;;;2.63;1.67;;;-0.20;77.30;-1.00;98587.00;;;;5038354;28;20350;-76
2022/04/04 01:33:00;;;;;;;2.10;2.00;;;-0.10;77.60;-1.20;98574.00;;;;5038914;28;20319;-76
2022/04/04 01:35:27;;;;;;;0.80;0.80;;;-0.20;77.70;-1.20;98575.00;;;;5036970;28;20201;-75
2022/04/04 01:37:54;;;;;;;1.40;1.40;;;-0.20;77.80;-1.10;98582.00;;;;5037090;28;20314;-75
2022/04/04 01:40:21;;;;;;;1.40;1.30;;;-0.20;78.20;-1.30;98576.00;;;;5036566;28;20309;-75
2022/04/04 01:42:51;;;;;;;1.27;1.27;;;-0.30;77.10;-1.30;98569.00;;;;5018778;28;20235;-75
2022/04/04 01:45:18;;;;;;;0.90;0.90;;;-0.30;78.30;-1.30;98567.00;;;;5036261;28;20241;-75
2022/04/04 01:47:46;;;;;;;1.20;1.20;;;-0.30;77.90;-1.40;98564.00;;;;5036194;28;20195;-75
2022/04/04 01:50:12;;;;;;;1.50;1.43;;;-0.30;78.90;-1.20;98566.00;;;;5036239;28;20457;-76
2022/04/04 01:52:39;;;;;;;1.20;1.20;;;-0.30;79.30;-1.30;98558.00;;;;5036132;28;20199;-76
2022/04/04 01:55:06;;;;;;;1.13;1.10;;;-0.30;78.00;-1.30;98563.00;;;;5036148;28;20652;-75
2022/04/04 01:57:34;;;;;;;0.93;0.93;;;-0.40;78.70;-1.30;98568.00;;;;5036054;28;20212;-76
2022/04/04 02:00:03;;;;;;;1.43;1.43;;;-0.30;78.20;-1.40;98552.00;;;;5018484;28;20307;-75
2022/04/04 02:02:30;;;;;;;1.30;1.20;;;-0.40;77.70;-1.20;98561.00;;;;5036220;28;20190;-75
2022/04/04 02:04:57;;;;;;;0.87;0.87;;;-0.30;77.90;-1.30;98558.00;;;;5036325;28;20214;-75
2022/04/04 02:07:26;;;;;;;1.03;1.03;;;-0.30;77.20;-1.30;98560.00;;;;5036053;28;20220;-75
2022/04/04 02:09:53;;;;;;;1.37;1.37;;;-0.30;77.30;-1.40;98548.00;;;;5018745;28;20668;-75
2022/04/04 02:12:22;;;;;;;1.97;1.83;;;-0.40;77.80;-1.30;98557.00;;;;5035789;28;20217;-75
2022/04/04 02:14:49;;;;;;;1.97;1.57;;;-0.40;77.70;-1.40;98546.00;;;;5035848;28;20210;-75
2022/04/04 02:17:18;;;;;;;1.27;1.27;;;-0.40;77.00;-1.30;98540.00;;;;5035734;28;20251;-75
2022/04/04 02:19:47;;;;;;;1.83;1.73;;;-0.40;76.60;-1.30;98549.00;;;;5036761;28;20256;-74
2022/04/04 02:22:13;;;;;;;0.90;0.90;;;-0.40;76.10;-1.30;98549.00;;;;5035919;28;20253;-75
2022/04/04 02:24:42;;;;;;;1.70;1.60;;;-0.40;75.90;-1.40;98547.00;;;;5046312;28;20213;-76
2022/04/04 02:27:09;;;;;;;1.70;1.60;;;-0.40;73.60;-1.50;98534.00;;;;5047416;28;20230;-76
2022/04/04 02:29:36;;;;;;;1.93;1.83;;;-0.50;73.70;-1.40;98540.00;;;;5040972;28;20202;-76
2022/04/04 02:32:02;;;;;;;1.60;1.50;;;-0.40;73.90;-1.30;98527.00;;;;5035810;28;20273;-76
2022/04/04 02:34:30;;;;;;;2.03;1.93;;;-0.40;73.90;-1.40;98530.00;;;;5035443;28;20230;-76
2022/04/04 02:36:56;;;;;;;1.40;1.27;;;-0.40;73.20;-1.40;98524.00;;;;5035420;28;20690;-76
2022/04/04 02:39:23;;;;;;;1.27;1.23;;;-0.40;73.20;-1.30;98527.00;;;;5035372;28;20276;-76
2022/04/04 02:41:52;;;;;;;1.77;1.63;;;-0.40;73.00;-1.40;98528.00;;;;5017992;28;20666;-76
2022/04/04 02:44:18;;;;;;;1.20;1.20;;;-0.30;72.20;-1.60;98522.00;;;;5018497;28;20594;-76
2022/04/04 02:46:45;;;;;;;0.90;0.90;;;-0.40;71.30;-1.60;98525.00;;;;5035411;28;20709;-77
2022/04/04 02:49:11;;;;;;;2.10;1.77;;;-0.50;72.30;-1.60;98517.00;;;;5035471;28;20228;-76
2022/04/04 02:51:38;;;;;;;1.10;1.10;;;-0.60;71.10;-1.50;98512.00;;;;5035353;28;20256;-76
2022/04/04 02:54:07;;;;;;;1.07;1.07;;;-0.60;72.00;-1.40;98511.00;;;;5035258;28;20220;-76
2022/04/04 02:56:33;;;;;;;2.33;1.97;;;-0.50;72.00;-1.60;98508.00;;;;5035054;28;20273;-75
2022/04/04 02:59:01;;;;;;;1.43;1.43;;;-0.50;70.80;-1.70;98512.00;;;;5035182;28;20204;-76
2022/04/04 03:01:29;;;;;;;1.13;1.13;;;-0.60;70.40;-1.60;98512.00;;;;5034904;28;20230;-75
2022/04/04 03:03:55;;;;;;;0.90;0.90;;;-0.60;70.40;-1.50;98499.00;;;;5035123;28;20277;-75
2022/04/04 03:06:22;;;;;;;1.40;1.40;;;-0.50;70.80;-1.50;98515.00;;;;5034899;28;20285;-75
2022/04/04 03:08:50;;;;;;;1.20;1.20;;;-0.50;70.60;-1.50;98505.00;;;;5034913;28;20199;-75
2022/04/04 03:11:19;;;;;;;1.27;1.27;;;-0.40;69.80;-1.50;98506.00;;;;5034891;28;20196;-75
2022/04/04 03:13:46;;;;;;;2.83;1.60;;;-0.40;69.60;-1.70;98513.00;;;;5034893;28;20222;-75
2022/04/04 03:16:12;;;;;;;1.53;1.43;;;-0.60;69.20;-1.70;98514.00;;;;5017702;28;20203;-75
2022/04/04 03:18:40;;;;;;;1.27;1.27;;;-0.70;69.80;-1.80;98506.00;;;;5034953;28;20227;-75
2022/04/04 03:21:07;;;;;;;0.80;0.80;;;-0.70;69.90;-1.90;98511.00;;;;5034665;28;20269;-75
2022/04/04 03:23:39;;;;;;;2.03;1.93;;;-0.90;70.70;-1.80;98512.00;;;;5017472;28;20213;-75
2022/04/04 03:26:07;;;;;;;1.83;1.73;;;-0.80;71.00;-1.70;98511.00;;;;5034749;28;20215;-75
2022/04/04 03:28:33;;;;;;;1.90;1.80;;;-0.70;70.70;-1.80;98505.00;;;;5034718;28;20665;-75
2022/04/04 03:31:00;;;;;;;1.27;1.27;;;-0.70;69.80;-1.90;98502.00;;;;5017446;28;20249;-75
2022/04/04 03:33:26;;;;;;;1.20;1.20;;;-0.80;69.90;-1.90;98507.00;;;;5034522;28;20210;-75
2022/04/04 03:35:55;;;;;;;1.10;1.10;;;-0.80;70.70;-1.80;98506.00;;;;5034467;28;20230;-75
2022/04/04 03:38:22;;;;;;;1.00;1.00;;;-0.80;69.60;-1.80;98502.00;;;;5034543;28;20199;-75
2022/04/04 03:40:49;;;;;;;1.07;1.07;;;-0.80;69.80;-1.80;98501.00;;;;5016990;28;20557;-75
2022/04/04 03:43:18;;;;;;;1.10;1.10;;;-0.80;69.50;-1.70;98493.00;;;;5034282;28;20689;-75
2022/04/04 03:45:47;;;;;;;1.63;1.53;;;-0.70;70.00;-1.60;98498.00;;;;5034417;28;20197;-75
2022/04/04 03:48:14;;;;;;;2.33;2.23;;;-0.70;70.30;-1.60;98504.00;;;;5000700;28;20500;-75
2022/04/04 03:50:43;;;;;;;1.33;1.27;;;-0.60;70.20;-1.50;98504.00;;;;5034356;28;20200;-75
2022/04/04 03:53:09;;;;;;;1.13;1.13;;;-0.60;69.30;-1.50;98507.00;;;;5034176;28;20525;-75
2022/04/04 03:55:40;;;;;;;1.27;1.27;;;-0.60;69.00;-1.70;98515.00;;;;5034276;28;20212;-75
2022/04/04 03:58:09;;;;;;;0.83;0.83;;;-0.70;68.50;-1.70;98510.00;;;;5034191;28;20231;-75
2022/04/04 04:00:38;;;;;;;1.47;1.37;;;-0.70;69.00;-1.80;98506.00;;;;5034714;28;20219;-75
2022/04/04 04:03:05;;;;;;;1.37;1.27;;;-0.70;68.60;-1.80;98503.00;;;;5038215;28;20620;-75
2022/04/04 04:05:31;;;;;;;1.63;1.53;;;-0.80;68.70;-1.60;98499.00;;;;5037306;28;20266;-75
2022/04/04 04:07:58;;;;;;;1.07;1.00;;;-0.70;68.80;-1.60;98501.00;;;;5035015;28;20657;-75
2022/04/04 04:10:24;;;;;;;1.30;1.30;;;-0.60;68.60;-1.70;98493.00;;;;5034014;28;20529;-75
2022/04/04 04:12:51;;;;;;;1.87;1.77;;;-0.60;68.80;-1.50;98496.00;;;;5033821;28;20290;-75
2022/04/04 04:15:21;;;;;;;1.77;1.67;;;-0.60;68.50;-1.70;98493.00;;;;5033885;28;20220;-76
2022/04/04 04:17:52;;;;;;;1.77;1.43;;;-0.60;67.90;-1.70;98482.00;;;;5034160;28;20199;-75
2022/04/04 04:20:23;;;;;;;1.70;1.60;;;-0.70;68.10;-1.80;98486.00;;;;5033732;28;20239;-76
2022/04/04 04:22:54;;;;;;;1.00;1.00;;;-0.80;67.20;-1.90;98478.00;;;;5033958;28;20201;-75
2022/04/04 04:25:23;;;;;;;1.33;1.33;;;-0.80;67.10;-1.90;98478.00;;;;5016340;28;20579;-75
2022/04/04 04:27:51;;;;;;;1.00;1.00;;;-0.80;66.30;-1.80;98475.00;;;;5033988;28;20219;-75
2022/04/04 04:30:17;;;;;;;1.23;1.23;;;-0.90;66.70;-1.70;98488.00;;;;5033786;28;20281;-75
2022/04/04 04:32:47;;;;;;;0.90;0.90;;;-0.80;66.60;-1.70;98476.00;;;;5033837;28;20199;-75
2022/04/04 04:35:15;;;;;;;1.40;1.40;;;-0.70;66.80;-1.80;98480.00;;;;5016348;28;20208;-75
2022/04/04 04:37:43;;;;;;;1.07;1.07;;;-0.80;66.60;-1.80;98477.00;;;;5033521;28;20227;-76
2022/04/04 04:40:11;;;;;;;0.93;0.93;;;-0.80;66.90;-1.80;98477.00;;;;5033511;28;20220;-76
2022/04/04 04:42:38;;;;;;;0.73;0.73;;;-0.80;67.10;-1.80;98467.00;;;;5016071;28;20238;-76
2022/04/04 04:45:07;;;;;;;1.10;1.10;;;-0.80;67.40;-1.80;98425.00;;;;5015567;28;20218;-74
2022/04/04 04:47:34;;;;;;;0.90;0.90;;;-0.80;67.50;-1.80;98479.00;;;;5016398;28;20202;-74
2022/04/04 04:50:03;;;;;;;0.90;0.90;;;-0.80;67.70;-1.80;98478.00;;;;5033519;28;20198;-74
2022/04/04 04:52:30;;;;;;;0.90;0.90;;;-0.80;67.80;-1.70;98485.00;;;;5015988;28;20199;-74
2022/04/04 04:54:57;;;;;;;0.93;0.93;;;-0.80;68.10;-1.70;98458.00;;;;5015907;28;20675;-75
2022/04/04 04:57:23;;;;;;;1.20;1.20;;;-0.70;67.70;-1.70;98427.00;;;;5033413;28;20217;-75
2022/04/04 04:59:50;;;;;;;1.20;1.20;;;-0.70;67.70;-1.70;98416.00;;;;5033190;28;20250;-75
2022/04/04 05:02:17;;;;;;;1.23;1.13;;;-0.70;67.40;-1.80;98486.00;;;;5033502;28;20212;-74
2022/04/04 05:04:44;;;;;;;8.53;1.77;;;-0.70;67.70;-1.60;98471.00;;;;5033256;28;20219;-75
2022/04/04 05:07:11;;;;;;;1.40;1.40;;;-0.70;67.20;-1.60;98474.00;;;;5033326;28;20289;-74
2022/04/04 05:09:38;;;;;;;0.90;0.90;;;-0.70;67.00;-1.60;98475.00;;;;5033299;28;20211;-75
2022/04/04 05:12:07;;;;;;;1.03;1.03;;;-0.70;67.30;-1.70;98473.00;;;;5033127;28;20222;-75
2022/04/04 05:14:33;;;;;;;1.10;1.10;;;-0.70;67.30;-1.70;98468.00;;;;5033338;28;20196;-75
2022/04/04 05:17:00;;;;;;;0.70;0.70;;;-0.70;66.90;-1.80;98462.00;;;;5033243;28;20231;-75
2022/04/04 05:19:26;;;;;;;1.33;1.33;;;-0.80;66.90;-1.70;98454.00;;;;5033150;28;20309;-75
2022/04/04 05:21:56;;;;;;;1.27;1.13;;;-0.70;66.70;-1.70;98473.00;;;;5033065;28;20253;-74
2022/04/04 05:24:22;;;;;;;1.03;1.03;;;-0.70;66.10;-1.80;98454.00;;;;5033289;28;20220;-75
2022/04/04 05:26:52;;;;;;;0.97;0.97;;;-0.80;65.30;-1.90;98463.00;;;;5033202;28;20203;-75
2022/04/04 05:29:18;;;;;;;1.27;1.27;;;-0.80;64.70;-1.90;98470.00;;;;5033008;28;20212;-76
2022/04/04 05:31:45;;;;;;;0.87;0.87;;;-0.90;64.60;-2.10;98477.00;;;;5033029;28;20194;-75
2022/04/04 05:34:12;;;;;;;1.07;1.07;;;-1.00;64.30;-2.20;98470.00;;;;5033058;28;20222;-75
2022/04/04 05:36:39;;;;;;;1.20;1.20;;;-1.10;65.00;-2.20;98437.00;;;;5033203;28;20198;-75
2022/04/04 05:39:07;;;;;;;0.70;0.70;;;-1.10;65.10;-2.20;98474.00;;;;5032981;28;20649;-74
2022/04/04 05:41:36;;;;;;;0.90;0.90;;;-1.20;65.20;-2.20;98477.00;;;;5032975;28;20248;-74
2022/04/04 05:44:06;;;;;;;1.17;1.17;;;-1.20;65.30;-2.30;98474.00;;;;5015575;28;20618;-75
2022/04/04 05:46:33;;;;;;;0.80;0.80;;;-1.10;65.60;-2.10;98473.00;;;;5032970;28;20281;-75
2022/04/04 05:49:02;;;;;;;0.90;0.90;;;-1.10;65.70;-2.10;98477.00;;;;5032983;28;20217;-75
2022/04/04 05:51:29;;;;;;;6.23;1.80;;;-1.10;65.50;-2.00;98480.00;;;;5033252;28;20226;-75
2022/04/04 05:53:58;;;;;;;1.03;1.03;;;-1.00;65.50;-2.10;98472.00;;;;5033086;28;20200;-75
2022/04/04 05:56:24;;;;;;;0.70;0.70;;;-1.00;64.90;-2.00;98475.00;;;;5032915;28;20362;-76
2022/04/04 05:58:51;;;;;;;1.30;1.30;;;-1.00;65.20;-2.00;98480.00;;;;5035538;28;20625;-75
2022/04/04 06:01:18;;;;;;;0.90;0.90;;;-0.90;64.80;-1.90;98475.00;;;;5036139;28;20248;-76
2022/04/04 06:03:45;;;;;;;1.07;1.07;;;-0.90;64.80;-1.90;98466.00;;;;5036307;28;20294;-76
2022/04/04 06:06:12;;;;;;;1.40;1.30;;;-0.90;64.50;-1.90;98466.00;;;;5018745;28;20250;-76
2022/04/04 06:08:38;;;;;;;0.70;0.70;;;-0.90;64.50;-1.70;98468.00;;;;5036116;28;20204;-78
2022/04/04 06:11:05;;;;;;;1.30;1.30;;;-0.70;64.90;-1.60;98466.00;;;;5036396;28;20207;-75
2022/04/04 06:13:31;;;;;;;1.00;1.00;;;-0.60;64.50;-1.40;98471.00;;;;5036203;28;20222;-75
2022/04/04 06:15:59;;;;;;;1.10;1.10;;;-0.50;64.30;-1.30;98475.00;;;;5036602;28;20204;-75
2022/04/04 06:18:26;;;;;;;1.10;1.10;;;-0.40;63.80;-1.20;98469.00;;;;5036826;28;20243;-78
2022/04/04 06:20:53;;;;;;;0.70;0.70;;;-0.30;63.30;-1.10;98460.00;;;;5038940;28;20228;-78
2022/04/04 06:23:20;;;;;;;2.17;2.07;;;-0.20;62.70;-1.00;98472.00;;;;5038580;28;20202;-79
2022/04/04 06:25:49;;;;;;;0.60;0.60;;;-0.20;62.30;-1.00;98464.00;;;;5038677;28;20225;-79
2022/04/04 06:28:16;;;;;;;1.13;1.13;;;-0.10;62.30;-0.90;98464.00;;;;5037805;28;20194;-78
2022/04/04 06:30:43;;;;;;;0.93;0.93;;;0.00;62.30;-0.80;98463.00;;;;5036080;28;20210;-77
2022/04/04 06:33:09;;;;;;;0.83;0.83;;;0.10;62.40;-0.70;98473.00;;;;5035903;28;20534;-76
2022/04/04 06:35:37;;;;;;;1.50;1.40;;;0.20;62.20;-0.60;98470.00;;;;5018501;28;20269;-77
2022/04/04 06:38:03;;;;;;;0.93;0.93;;;0.30;62.40;-0.60;98471.00;;;;5035184;28;20739;-76
2022/04/04 06:40:35;;;;;;;0.90;0.90;;;0.40;62.00;-0.50;98467.00;;;;5018074;28;20696;-76
2022/04/04 06:43:02;;;;;;;1.23;1.13;;;0.40;61.20;-0.40;98456.00;;;;5035581;28;20196;-76
2022/04/04 06:45:29;;;;;;;2.10;1.53;;;0.50;61.30;-0.60;98459.00;;;;5035752;28;20501;-75
2022/04/04 06:47:55;;;;;;;1.60;1.50;;;0.50;59.80;-0.60;98461.00;;;;5035580;28;20313;-77
2022/04/04 06:50:23;;;;;;;2.73;1.30;;;0.40;59.90;-0.40;98456.00;;;;5035594;28;20229;-75
2022/04/04 06:52:52;;;;;;;2.10;2.00;;;0.50;60.20;-0.30;98455.00;;;;5035451;28;20196;-72
2022/04/04 06:55:20;;;;;;;1.73;1.63;;;0.60;60.10;-0.30;98438.00;;;;5035329;28;20209;-71
2022/04/04 06:57:46;;;;;;;0.73;0.73;;;0.70;59.10;0.00;98454.00;;;;5035144;28;20203;-73
2022/04/04 07:00:16;;;;;;;0.80;0.80;;;0.80;58.40;0.00;98453.00;;;;5035020;28;20232;-72
2022/04/04 07:02:44;;;;;;;1.47;1.37;;;0.90;58.10;0.10;98455.00;;;;5035177;28;20280;-73
2022/04/04 07:05:11;;;;;;;3.03;1.23;;;1.00;56.80;0.30;98454.00;;;;5035074;28;20197;-73
2022/04/04 07:07:40;;;;;;;1.63;1.53;;;1.10;56.80;0.50;98456.00;;;;5034969;28;20220;-72
2022/04/04 07:10:10;;;;;;;0.93;0.93;;;1.30;56.80;0.60;98399.00;;;;5034735;28;20283;-72
2022/04/04 07:12:41;;;;;;;0.90;0.90;;;1.40;55.40;0.40;98447.00;;;;5035011;28;20685;-72
2022/04/04 07:15:11;;;;;;;1.40;1.40;;;1.40;55.40;0.40;98457.00;;;;5035117;28;20220;-71
2022/04/04 07:17:39;;;;;;;1.50;1.17;;;1.30;56.60;0.60;98404.00;;;;5034634;28;20299;-72
2022/04/04 07:20:10;;;;;;;1.30;1.27;;;1.40;55.50;0.30;98456.00;;;;5034707;28;20232;-72
2022/04/04 07:22:41;;;;;;;1.27;1.27;;;1.30;54.50;0.40;98450.00;;;;5034909;28;20559;-72
2022/04/04 07:25:14;;;;;;;1.23;1.10;;;1.30;55.50;0.60;98445.00;;;;5035468;28;20275;-72
2022/04/04 07:27:45;;;;;;;0.73;0.73;;;1.40;55.90;1.00;98447.00;;;;5018417;28;20227;-72
2022/04/04 07:30:16;;;;;;;1.00;1.00;;;1.70;54.70;1.00;98443.00;;;;5034766;28;20193;-72
2022/04/04 07:32:46;;;;;;;1.00;1.00;;;1.80;54.20;0.80;98423.00;;;;5034623;28;20220;-72
2022/04/04 07:35:13;;;;;;;0.93;0.93;;;1.70;54.60;0.80;98432.00;;;;5034588;28;20232;-73
2022/04/04 07:37:42;;;;;;;0.93;0.93;;;1.70;54.80;1.20;98438.00;;;;5034541;28;20197;-71
2022/04/04 07:40:13;;;;;;;2.13;1.50;;;2.00;54.20;1.30;98446.00;;;;5034544;28;20223;-71
2022/04/04 07:42:40;;;;;;;0.83;0.83;;;2.10;54.20;1.50;98441.00;;;;5034634;28;20222;-71
2022/04/04 07:45:13;;;;;;;0.93;0.93;;;2.30;53.50;1.40;98433.00;;;;5034419;28;20221;-71
2022/04/04 07:47:41;;;;;;;0.90;0.90;;;2.30;53.30;1.40;98436.00;;;;5017218;28;20297;-72
2022/04/04 07:50:13;;;;;;;0.80;0.80;;;2.30;53.60;1.60;98442.00;;;;5034538;28;20219;-72
2022/04/04 07:52:40;;;;;;;3.43;1.87;;;2.40;54.80;1.60;98437.00;;;;5034512;28;20204;-71
2022/04/04 07:55:09;;;;;;;0.93;0.93;;;2.40;52.90;1.80;98444.00;;;;5034319;28;20209;-71
2022/04/04 07:57:36;;;;;;;1.43;1.33;;;2.50;52.00;1.60;98436.00;;;;5017005;28;20566;-71
2022/04/04 08:00:08;;;;;;;3.67;3.00;;;2.50;52.50;2.00;98429.00;;;;5034610;28;20263;-71
2022/04/04 08:02:38;;;;;;;0.93;0.93;;;2.70;51.60;1.80;98402.00;;;;5016142;28;20208;-72
2022/04/04 08:05:07;;;;;;;0.70;0.70;;;2.70;51.50;2.00;98434.00;;;;5034034;28;20279;-72
2022/04/04 08:07:37;;;;;;;1.00;1.00;;;2.70;51.70;2.10;98423.00;;;;5034117;28;20219;-71
2022/04/04 08:10:05;;;;;;;0.90;0.90;;;2.80;50.30;2.20;98427.00;;;;5034105;28;20232;-72
2022/04/04 08:12:36;;;;;;;0.97;0.97;;;3.00;49.70;2.20;98413.00;;;;5034144;28;20542;-72
2022/04/04 08:15:03;;;;;;;0.93;0.93;;;2.90;49.50;2.50;98423.00;;;;5034069;28;20197;-73
2022/04/04 08:17:30;;;;;;;0.80;0.80;;;3.10;50.00;2.40;98418.00;;;;5016583;28;20221;-73
2022/04/04 08:19:59;;;;;;;0.90;0.90;;;3.20;47.90;2.30;98411.00;;;;5033085;28;20234;-71
2022/04/04 08:22:26;;;;;;;1.27;1.27;;;3.10;48.10;2.50;98413.00;;;;5033946;28;20246;-72
2022/04/04 08:24:54;;;;;;;1.30;1.30;;;3.30;47.60;2.40;98417.00;;;;5016407;28;20675;-72
2022/04/04 08:27:22;;;;;;;1.60;1.50;;;3.30;48.00;2.70;98409.00;;;;5033923;28;20238;-72
2022/04/04 08:29:49;;;;;;;1.10;1.10;;;3.40;47.90;2.80;98410.00;;;;5033744;28;20261;-72
2022/04/04 08:32:18;;;;;;;1.03;1.03;;;3.50;47.80;2.90;98414.00;;;;5033772;28;20697;-72
2022/04/04 08:34:45;;;;;;;1.00;1.00;;;3.70;46.90;3.00;98402.00;;;;5033778;28;20322;-73
2022/04/04 08:37:12;;;;;;;1.53;1.43;;;3.80;46.30;3.10;98399.00;;;;5016275;28;20293;-73
2022/04/04 08:39:44;;;;;;;1.17;1.17;;;3.80;45.00;3.00;98400.00;;;;5033830;28;20202;-72
2022/04/04 08:42:12;;;;;;;0.87;0.87;;;3.90;46.00;3.00;98399.00;;;;5016151;28;20578;-72
2022/04/04 08:44:39;;;;;;;1.23;1.13;;;3.90;45.80;2.90;98409.00;;;;5033742;28;20266;-72
2022/04/04 08:47:07;;;;;;;0.90;0.90;;;3.70;45.30;2.90;98400.00;;;;5034293;28;20198;-72
2022/04/04 08:49:36;;;;;;;0.97;0.97;;;3.70;46.00;3.20;98404.00;;;;5034494;28;20218;-73
2022/04/04 08:52:06;;;;;;;0.80;0.80;;;3.90;46.30;3.30;98403.00;;;;5040867;28;20224;-73
2022/04/04 08:54:32;;;;;;;0.80;0.80;;;4.00;44.60;3.40;98402.00;;;;5045817;28;20197;-73
2022/04/04 08:56:59;;;;;;;0.93;0.93;;;4.20;45.50;3.30;98391.00;;;;5045466;28;20223;-72
2022/04/04 08:59:26;;;;;;;1.10;1.10;;;4.10;42.10;3.40;98389.00;;;;5034655;28;20303;-73
2022/04/04 09:01:53;;;;;;;1.90;1.77;;;4.20;42.40;3.30;98390.00;;;;5034002;28;20231;-73
2022/04/04 09:04:23;;;;;;;1.07;1.07;;;4.20;42.20;3.50;98390.00;;;;5033400;28;20211;-72
2022/04/04 09:06:52;;;;;;;1.00;1.00;;;4.30;41.00;3.70;98374.00;;;;5033354;28;20211;-72
2022/04/04 09:09:25;;;;;;;0.70;0.70;;;4.50;39.80;3.60;98379.00;;;;5033241;28;20219;-73
2022/04/04 09:12:05;;;;;;;15.13;1.47;;;4.40;40.00;3.70;98375.00;;;;5033298;28;20195;-72
2022/04/04 09:14:41;;;;;;;1.77;1.00;;;4.50;40.20;3.90;98370.00;;;;5033266;28;20774;-72
2022/04/04 09:17:12;;;;;;;0.90;0.90;;;4.60;38.80;4.00;98367.00;;;;5033265;28;20288;-73
2022/04/04 09:19:41;;;;;;;1.10;1.10;;;4.80;39.00;3.80;98358.00;;;;5033270;28;20200;-71
2022/04/04 09:22:10;;;;;;;0.90;0.90;;;4.60;38.60;3.80;98358.00;;;;5033135;28;20228;-71
2022/04/04 09:24:51;;;;;;;1.00;1.00;;;4.60;38.50;4.00;98352.00;;;;5033149;28;20711;-72
2022/04/04 09:27:22;;;;;;;1.53;1.33;;;4.70;38.10;4.10;98353.00;;;;5033026;28;20187;-71
2022/04/04 09:29:52;;;;;;;0.80;0.80;;;4.90;38.70;4.20;98339.00;;;;5015769;28;20628;-71
2022/04/04 09:32:22;;;;;;;1.83;1.73;;;;;4.30;98340.00;;;;5035158;28;20235;-72
2022/04/04 09:34:59;;;;;;;0.83;0.83;;;5.10;39.00;4.50;98332.00;;;;5019036;28;20701;-72
2022/04/04 09:37:31;;;;;;;1.57;1.47;;;5.30;38.40;4.70;98332.00;;;;5036601;28;20189;-72
2022/04/04 09:40:16;;;;;;;0.77;0.77;;;5.40;35.20;5.00;98332.00;;;;5036377;28;20217;-73
2022/04/04 09:42:57;;;;;;;1.27;1.27;;;5.60;35.40;5.00;98332.00;;;;5036527;28;20527;-72
2022/04/04 09:45:28;;;;;;;1.87;1.10;;;5.70;33.20;4.90;98320.00;;;;5036402;28;20227;-72
2022/04/04 09:48:01;;;;;;;1.10;1.10;;;5.70;32.80;5.00;98304.00;;;;5036351;28;20290;-72
2022/04/04 09:50:44;;;;;;;1.07;1.07;;;5.70;33.90;4.90;98320.00;;;;5036317;28;20200;-72
2022/04/04 09:53:14;;;;;;;0.73;0.73;;;5.70;32.70;4.90;98301.00;;;;5036205;28;20224;-72
2022/04/04 09:55:44;;;;;;;1.13;1.03;;;5.60;33.10;4.60;98312.00;;;;5036291;28;20200;-73
2022/04/04 09:58:15;;;;;;;1.20;1.20;;;5.50;32.20;4.90;98301.00;;;;5036377;28;20204;-73
2022/04/04 10:00:44;;;;;;;0.80;0.80;;;5.60;33.60;5.00;98298.00;;;;5018586;28;20236;-74
2022/04/04 10:03:16;;;;;;;1.00;1.00;;;5.70;32.90;5.10;98297.00;;;;5036052;28;20200;-72
2022/04/04 10:05:47;;;;;;;0.90;0.90;;;5.80;32.20;5.20;98287.00;;;;5018662;28;20291;-72
2022/04/04 10:08:15;;;;;;;1.00;1.00;;;5.90;33.00;5.00;98292.00;;;;5035910;28;20201;-73
2022/04/04 10:10:45;;;;;;;0.97;0.97;;;5.90;32.10;5.20;98254.00;;;;5035992;28;20200;-73
2022/04/04 10:13:15;;;;;;;1.37;1.37;;;5.90;33.40;5.50;98269.00;;;;5035842;28;20529;-73
2022/04/04 10:15:42;;;;;;;1.50;1.17;;;6.20;33.60;5.60;98247.00;;;;5018490;28;20527;-73
2022/04/04 10:18:09;;;;;;;1.03;1.03;;;6.30;33.50;5.50;98271.00;;;;5035920;28;20208;-73
2022/04/04 10:20:39;;;;;;;0.87;0.87;;;6.30;33.30;5.70;98267.00;;;;5035695;28;20311;-74
2022/04/04 10:23:12;;;;;;;3.67;1.23;;;6.40;34.80;6.00;98265.00;;;;5018572;28;20197;-74
2022/04/04 10:25:41;;;;;;;0.90;0.90;;;6.50;34.10;6.10;98241.00;;;;5035740;28;20763;-73
2022/04/04 10:28:07;;;;;;;0.70;0.70;;;6.70;34.00;5.90;98260.00;;;;5035792;28;20199;-75
2022/04/04 10:30:40;;;;;;;1.30;1.10;;;6.60;34.50;5.80;98274.00;;;;5035698;28;20225;-72
2022/04/04 10:33:19;;;;;;;2.63;1.13;;;6.60;33.80;5.50;98253.00;;;;5018156;28;20201;-72
2022/04/04 10:36:00;;;;;;;1.00;1.00;;;6.40;33.10;5.60;98232.00;;;;5035897;28;20279;-73
2022/04/04 10:38:32;;;;;;;1.70;1.53;;;6.30;34.40;5.60;98246.00;;;;5018118;28;20232;-73
2022/04/04 10:41:02;;;;;;;0.73;0.73;;;6.30;34.50;5.80;98247.00;;;;5035398;28;20303;-71
2022/04/04 10:43:33;;;;;;;0.87;0.87;;;6.50;34.30;5.90;98242.00;;;;5034607;28;20207;-72
2022/04/04 10:46:07;;;;;;;1.27;1.27;;;6.60;34.90;6.20;98231.00;;;;5035372;28;20193;-71
2022/04/04 10:48:39;;;;;;;1.13;1.13;;;6.80;33.40;5.90;98236.00;;;;5035382;28;20203;-71
2022/04/04 10:51:17;;;;;;;0.90;0.90;;;6.60;34.00;5.80;98224.00;;;;5018056;28;20236;-71
2022/04/04 10:53:48;;;;;;;1.10;1.10;;;6.60;35.30;6.00;98230.00;;;;5035493;28;20225;-71
2022/04/04 10:56:21;;;;;;;0.70;0.70;;;6.70;34.70;6.30;98218.00;;;;5035331;28;20196;-73
2022/04/04 10:58:50;;;;;;;1.23;1.23;;;6.90;35.20;6.00;98236.00;;;;5035341;28;20525;-70
2022/04/04 11:01:20;;;;;;;0.83;0.83;;;6.80;33.50;6.00;98213.00;;;;5035079;28;20313;-72
2022/04/04 11:04:00;;;;;;;1.13;1.07;;;6.80;33.60;5.90;98209.00;;;;5017553;28;20225;-72
2022/04/04 11:09:46;;;;;;;1.10;1.10;;;6.90;33.90;6.20;98190.00;;;;5034908;28;20282;-72
2022/04/04 11:12:18;;;;;;;0.73;0.73;;;7.00;35.50;6.80;98193.00;;;;5035002;28;20228;-72